SCC: Utah: Practice one times

Pos Num Class Team Time Gap To 1st Speed --- --- ----- ------------------------------ ---------- ------- ------- ------- 1. 09 GS Automatic Racing 3:11.134 84.494 2. 25...

Pos Num Class Team                                 Time     Gap  To 1st   Speed
--- --- ----- ------------------------------ ---------- ------- ------- -------
 1.  09 GS    Automatic Racing                 3:11.134                  84.494
 2.  25 GS    Fiorano/C-MAX Racing             3:11.180   0.046   0.046  84.473
 3.  41 GS    TRG                              3:11.368   0.188   0.234  84.390
 4.  79 GS    Kinetic Motorsports              3:12.169   0.801   1.035  84.039
 5.  96 GS    Turner Motorsport                3:12.293   0.124   1.159  83.984
 6.  97 GS    Turner Motorsport                3:12.599   0.306   1.465  83.851
 7.  55 GS    Hyper Sport                      3:12.825   0.226   1.691  83.753
 8.  38 GS    BGB Motorsports                  3:12.839   0.014   1.705  83.747
 9.  39 GS    TRG                              3:12.944   0.105   1.810  83.701
10.  40 GS    TRG                              3:12.974   0.030   1.840  83.688
11. 156 GS    Hyper Sport                      3:13.005   0.031   1.871  83.675
12.  26 GS    Fiorano/C-MAX Racing             3:13.354   0.349   2.220  83.523
13.  49 GS    Marcus Motorsports               3:13.359   0.005   2.225  83.521
14.  78 GS    Kinetic Motorsports              3:13.460   0.101   2.326  83.478
15.  80 GS    Kinetic Motorsports              3:13.593   0.133   2.459  83.420
16.  91 GS    Automatic Racing                 3:13.674   0.081   2.540  83.385
17.  99 GS    Automatic Racing                 3:14.540   0.866   3.406  83.014
18. 137 GS    JBS Motorsports                  3:14.624   0.084   3.490  82.978
19. 154 GS    Rehagen Racing                   3:14.766   0.142   3.632  82.918
20.  90 GS    Automatic Racing                 3:14.787   0.021   3.653  82.909
21.  52 GS    Rehagen Racing                   3:14.936   0.149   3.802  82.846
22.  28 GS    Fall-Line Motorsports            3:15.213   0.277   4.079  82.728
23.  46 GS    Fall-Line Motorsports            3:15.487   0.274   4.353  82.612
24.  87 GS    Marcus Motorsports               3:15.507   0.020   4.373  82.604
25.  59 GS    Rehagen Racing                   3:15.598   0.091   4.464  82.565
26. 199 GS    Bush Decor and Construction      3:16.387   0.789   5.253  82.234
27.  88 GS    Ranger Sports Racing             3:16.458   0.071   5.324  82.204
28.  37 GS    JBS Racing                       3:16.497   0.039   5.363  82.188
29. 112 GS    Larry H Miller Racing            3:16.716   0.219   5.582  82.096
30.  93 ST    GOTO Racing                      3:17.156   0.440   6.022  81.913
31.  54 GS    Hyper Sport                      3:17.232   0.076   6.098  81.881
32.  42 GS    TRG                              3:18.080   0.848   6.946  81.531
33.  01 ST    Georgian Bay Motorsports         3:19.052   0.972   7.918  81.133
34.  30 GS    ACG Motorsports                  3:19.670   0.618   8.536  80.881
35.  51 ST    Tom Mitchell Motorsports         3:19.763   0.093   8.629  80.844
36.  86 ST    Classic BMW - Plano              3:20.117   0.354   8.983  80.701
37.  76 ST    Kensai Racing                    3:20.327   0.210   9.193  80.616
38.  32 ST    i-MOTO Racing                    3:20.556   0.229   9.422  80.524
39. 111 ST    ICY/ Phoenix Racing              3:20.728   0.172   9.594  80.455
40.  11 GS    Southwest Racers Group           3:20.914   0.186   9.780  80.381
41.  95 ST    Turner Motorsport                3:20.926   0.012   9.792  80.376
42.  63 ST    Roar Racing                      3:20.998   0.072   9.864  80.347
43.  53 ST    Predator Auto Sport              3:21.436   0.438  10.302  80.172
44.  31 ST    i-MOTO Racing                    3:21.508   0.072  10.374  80.144
45.  89 GS    Ranger Sports Racing             3:21.724   0.216  10.590  80.058
46.  85 ST    Classic BMW - Plano              3:21.910   0.186  10.776  79.984
47. 138 ST    GS Motorsports                   3:21.947   0.037  10.813  79.969
48.  74 ST    Kensai Racing                    3:21.948   0.001  10.814  79.969
49.  24 ST    V-Pack Motorsport                3:22.084   0.136  10.950  79.915
50.  58 ST    BSI Racing                       3:22.804   0.720  11.670  79.632
51.  22 ST    HART                             3:22.845   0.041  11.711  79.615
52. 198 ST    RSR Motorsports                  3:23.216   0.371  12.082  79.470
53.  69 ST    SpeedSource                      3:23.274   0.058  12.140  79.447
54.  56 ST    BSI Racing                       3:24.074   0.800  12.940  79.136
55.  17 GS    Team Centurion                   3:24.130   0.056  12.996  79.114
56.  62 ST    Roar Racing                      3:24.295   0.165  13.161  79.050
57. 141 ST    ICY/ Phoenix Racing              3:24.364   0.069  13.230  79.024
58. 127 ST    Fountain Motorsports             3:24.769   0.405  13.635  78.867
59. 197 ST    RSR Motorsports                  3:26.116   1.347  14.982  78.352
60.  70 ST    SpeedSource                      3:28.233   2.117  17.099  77.555
61.  06 ST    Project Motorsports              3:28.542   0.309  17.408  77.441
62.  75 ST    Kensai Racing                    3:34.585   6.043  23.451  75.260
63. 126 ST    Fountain Motorsports             5:58.397 2:23.81 2:47.26  45.061
64.  12 ST    Southwest Racers Group           8:20.070 2:21.67 5:08.93  32.295
65.  33 GS    Playboy Racing                    No Time
66.  35 GS    Playboy Racing                    No Time
67.  72 GS    BGB Motorsports                   No Time

Be part of something big

Write a comment
Show comments
About this article
Series Grand-Am
Teams Kinetic Motorsports , Rehagen Racing , Turner Motorsport , Automatic Racing , HART , Fall-Line Motorsports , SpeedSource , Phoenix Racing